createdAt,value
2023-01-01T00:00:52.310Z,9.15
2023-01-01T00:03:25.266Z,9.26
2023-01-01T00:05:55.234Z,9.29
2023-01-01T00:08:25.405Z,9.34
2023-01-01T00:10:55.760Z,9.36
2023-01-01T00:13:25.822Z,9.43
2023-01-01T00:15:55.824Z,9.57
2023-01-01T00:18:31.285Z,9.74
2023-01-01T00:21:06.182Z,9.82
2023-01-01T00:23:37.740Z,10.02
2023-01-01T00:26:16.708Z,10.11
2023-01-01T00:28:48.166Z,10.22
2023-01-01T00:31:22.249Z,10.38
2023-01-01T00:33:58.333Z,10.38
2023-01-01T00:36:30.658Z,10.55
2023-01-01T00:39:00.917Z,10.60
2023-01-01T00:41:30.936Z,10.67
2023-01-01T00:44:01.022Z,10.68
2023-01-01T00:46:30.991Z,10.65
2023-01-01T00:49:03.728Z,10.65
2023-01-01T00:51:37.169Z,10.64
2023-01-01T00:54:07.715Z,10.70
2023-01-01T00:56:37.979Z,10.65
2023-01-01T00:59:08.088Z,10.65
2023-01-01T01:01:38.309Z,10.59
2023-01-01T01:04:11.779Z,10.58
2023-01-01T01:06:41.787Z,10.62
2023-01-01T01:09:11.810Z,10.63
2023-01-01T01:11:41.835Z,10.72
2023-01-01T01:14:11.834Z,10.74
2023-01-01T01:16:42.100Z,10.69
2023-01-01T01:19:18.911Z,10.57
2023-01-01T01:21:51.371Z,10.44
2023-01-01T01:24:22.133Z,10.37
2023-01-01T01:26:52.143Z,10.18
2023-01-01T01:29:22.135Z,10.18
2023-01-01T01:31:52.112Z,10.18
2023-01-01T01:34:28.132Z,10.10
2023-01-01T01:36:58.555Z,10.01
2023-01-01T01:39:28.548Z,9.96
2023-01-01T01:41:58.527Z,9.99
2023-01-01T01:45:01.707Z,10.00
2023-01-01T01:47:38.431Z,9.99
2023-01-01T01:50:19.637Z,10.09
2023-01-01T01:53:06.350Z,10.02
2023-01-01T01:55:44.014Z,10.01
2023-01-01T01:58:17.110Z,10.00
2023-01-01T02:00:47.573Z,9.97
2023-01-01T02:03:23.612Z,9.96
2023-01-01T02:05:57.197Z,9.96
2023-01-01T02:08:28.819Z,9.91
2023-01-01T02:10:59.022Z,9.87
2023-01-01T02:13:29.236Z,9.95
2023-01-01T02:16:16.155Z,9.95
2023-01-01T02:18:55.091Z,9.96
2023-01-01T02:21:33.786Z,9.94
2023-01-01T02:24:39.497Z,9.93
2023-01-01T02:27:21.045Z,9.96
2023-01-01T02:30:00.942Z,10.03
2023-01-01T02:32:38.009Z,10.01
2023-01-01T02:35:29.377Z,9.95
2023-01-01T02:38:07.469Z,9.90
2023-01-01T02:40:44.631Z,9.83
2023-01-01T02:43:16.198Z,9.73
2023-01-01T02:45:51.886Z,9.67
2023-01-01T02:48:42.642Z,9.60
2023-01-01T02:51:27.557Z,9.60
2023-01-01T02:54:10.108Z,9.49
2023-01-01T02:56:48.465Z,9.44
2023-01-01T02:59:42.891Z,9.48
2023-01-01T03:02:28.692Z,9.38
2023-01-01T03:05:10.731Z,9.35
2023-01-01T03:07:57.514Z,9.44
2023-01-01T03:10:41.003Z,9.54
2023-01-01T03:13:21.835Z,9.47
2023-01-01T03:16:02.940Z,9.56
2023-01-01T03:18:41.961Z,9.66
2023-01-01T03:23:55.517Z,9.91
2023-01-01T03:26:31.864Z,9.91
2023-01-01T03:29:05.114Z,9.90
2023-01-01T03:31:37.337Z,9.91
2023-01-01T03:34:48.390Z,9.79
2023-01-01T03:37:26.774Z,9.74
2023-01-01T03:40:02.143Z,9.73
2023-01-01T03:42:41.148Z,9.69
2023-01-01T03:45:19.576Z,9.70
2023-01-01T03:47:49.963Z,9.70
2023-01-01T03:50:28.351Z,9.63
2023-01-01T03:53:10.806Z,9.61
2023-01-01T03:55:48.430Z,9.53
2023-01-01T03:58:30.229Z,9.54
2023-01-01T04:01:11.704Z,9.49
2023-01-01T04:03:43.934Z,9.45
2023-01-01T04:06:16.805Z,9.46
2023-01-01T04:08:48.017Z,9.47
2023-01-01T04:11:38.204Z,9.46
2023-01-01T04:14:08.479Z,9.57
2023-01-01T04:16:38.544Z,9.55
2023-01-01T04:19:09.308Z,9.57
2023-01-01T04:21:41.895Z,9.46
2023-01-01T04:24:12.385Z,9.41
2023-01-01T04:26:42.384Z,9.34
2023-01-01T04:29:12.515Z,9.31
2023-01-01T04:31:42.561Z,9.22
2023-01-01T04:34:13.006Z,9.11
2023-01-01T04:36:46.036Z,8.95
2023-01-01T04:39:16.094Z,8.79
2023-01-01T04:41:46.116Z,8.65
2023-01-01T04:44:16.089Z,8.66
2023-01-01T04:46:46.041Z,8.65
2023-01-01T04:49:16.031Z,8.55
2023-01-01T04:51:48.642Z,8.43
2023-01-01T04:54:18.720Z,8.38
2023-01-01T04:56:48.736Z,8.32
2023-01-01T04:59:18.823Z,8.27
2023-01-01T05:01:49.363Z,8.30
2023-01-01T05:04:20.563Z,8.34
2023-01-01T05:06:53.193Z,8.36
2023-01-01T05:09:23.266Z,8.38
2023-01-01T05:11:53.289Z,8.41
2023-01-01T05:14:23.257Z,8.40
2023-01-01T05:16:53.331Z,8.44
2023-01-01T05:19:23.436Z,8.44
2023-01-01T05:21:56.084Z,8.43
2023-01-01T05:24:26.094Z,8.46
2023-01-01T05:26:56.949Z,8.35
2023-01-01T05:29:27.051Z,8.35
2023-01-01T05:31:58.313Z,8.32
2023-01-01T05:37:01.966Z,8.22
2023-01-01T05:39:32.144Z,8.24
2023-01-01T05:42:02.103Z,8.23
2023-01-01T05:44:32.059Z,8.23
2023-01-01T05:47:02.724Z,8.19
2023-01-01T05:49:32.719Z,8.17
2023-01-01T05:52:05.327Z,8.15
2023-01-01T05:54:35.268Z,8.15
2023-01-01T05:57:05.242Z,8.10
2023-01-01T05:59:35.307Z,8.10
2023-01-01T06:02:05.347Z,8.02
2023-01-01T06:04:35.580Z,7.97
2023-01-01T06:07:08.281Z,7.89
2023-01-01T06:09:38.393Z,7.86
2023-01-01T06:12:10.473Z,7.86
2023-01-01T06:14:40.497Z,7.82
2023-01-01T06:17:10.499Z,7.71
2023-01-01T06:19:40.522Z,7.75
2023-01-01T06:22:13.193Z,7.71
2023-01-01T06:24:43.169Z,7.69
2023-01-01T06:27:13.154Z,7.64
2023-01-01T06:29:43.115Z,7.67
2023-01-01T06:32:13.053Z,7.71
2023-01-01T06:34:43.030Z,7.71
2023-01-01T06:37:15.584Z,7.78
2023-01-01T06:39:45.601Z,7.84
2023-01-01T06:42:15.825Z,7.84
2023-01-01T06:44:45.881Z,7.85
2023-01-01T06:47:15.849Z,7.84
2023-01-01T06:49:45.844Z,7.86
2023-01-01T06:52:18.427Z,7.91
2023-01-01T06:54:48.896Z,7.98
2023-01-01T06:57:18.858Z,7.99
2023-01-01T06:59:48.841Z,7.97
2023-01-01T07:02:19.043Z,8.04
2023-01-01T07:04:49.461Z,8.04
2023-01-01T07:07:22.007Z,7.95
2023-01-01T07:09:51.952Z,7.92
2023-01-01T07:12:22.010Z,7.92
2023-01-01T07:14:52.004Z,7.93
2023-01-01T07:17:21.949Z,7.84
2023-01-01T07:19:52.057Z,7.82
2023-01-01T07:22:24.768Z,7.61
2023-01-01T07:24:54.818Z,7.43
2023-01-01T07:27:24.873Z,7.45
2023-01-01T07:29:54.866Z,7.41
2023-01-01T07:32:24.881Z,7.43
2023-01-01T07:34:54.912Z,7.43
2023-01-01T07:37:27.676Z,7.47
2023-01-01T07:39:57.774Z,7.42
2023-01-01T07:42:27.822Z,7.40
2023-01-01T07:44:57.895Z,7.42
2023-01-01T07:47:29.611Z,7.41
2023-01-01T07:49:59.726Z,7.52
2023-01-01T07:52:32.311Z,7.58
2023-01-01T07:55:02.376Z,7.61
2023-01-01T07:57:32.369Z,7.67
2023-01-01T08:00:02.380Z,7.75
2023-01-01T08:02:43.146Z,7.82
2023-01-01T08:05:13.556Z,7.93
2023-01-01T08:07:49.750Z,7.90
2023-01-01T08:10:22.877Z,7.99
2023-01-01T08:12:52.933Z,8.14
2023-01-01T08:15:22.935Z,8.18
2023-01-01T08:17:52.901Z,8.09
2023-01-01T08:20:22.951Z,8.22
2023-01-01T08:22:56.705Z,8.31
2023-01-01T08:25:29.057Z,8.29
2023-01-01T08:27:59.050Z,8.28
2023-01-01T08:30:29.379Z,8.32
2023-01-01T08:32:59.504Z,8.39
2023-01-01T08:35:29.609Z,8.58
2023-01-01T08:38:02.243Z,8.65
2023-01-01T08:40:32.304Z,8.59
2023-01-01T08:43:02.291Z,8.79
2023-01-01T08:45:33.368Z,8.83
2023-01-01T08:48:03.376Z,9.02
2023-01-01T08:50:33.401Z,9.17
2023-01-01T08:53:06.485Z,9.39
2023-01-01T08:55:36.556Z,9.53
2023-01-01T08:58:10.239Z,9.73
2023-01-01T09:00:40.350Z,9.90
2023-01-01T09:03:10.550Z,10.07
2023-01-01T09:05:45.673Z,10.23
2023-01-01T09:08:19.000Z,10.36
2023-01-01T09:10:49.062Z,10.38
2023-01-01T09:13:22.978Z,10.52
2023-01-01T09:15:53.227Z,10.52
2023-01-01T09:18:23.303Z,10.12
2023-01-01T09:20:53.329Z,10.20
2023-01-01T09:23:26.032Z,10.34
2023-01-01T09:25:58.232Z,10.40
2023-01-01T09:28:29.653Z,10.24
2023-01-01T09:30:59.746Z,10.27
2023-01-01T09:33:30.209Z,10.52
2023-01-01T09:36:16.556Z,10.65
2023-01-01T09:38:51.876Z,10.88
2023-01-01T09:41:35.248Z,10.88
2023-01-01T09:44:19.899Z,10.78
2023-01-01T09:46:50.367Z,10.55
2023-01-01T09:49:30.537Z,10.91
2023-01-01T09:52:05.672Z,11.11
2023-01-01T09:54:47.721Z,11.29
2023-01-01T09:57:20.206Z,11.38
2023-01-01T09:59:50.902Z,11.57
2023-01-01T10:02:45.569Z,11.78
2023-01-01T10:05:37.011Z,11.98
2023-01-01T10:08:23.440Z,12.16
2023-01-01T10:11:21.791Z,12.28
2023-01-01T10:13:56.121Z,12.47
2023-01-01T10:16:37.794Z,12.57
2023-01-01T10:19:26.030Z,12.79
2023-01-01T10:22:04.416Z,13.08
2023-01-01T10:24:46.915Z,13.29
2023-01-01T10:27:33.726Z,13.50
2023-01-01T10:30:09.829Z,13.67
2023-01-01T10:32:41.106Z,13.80
2023-01-01T10:35:18.122Z,13.93
2023-01-01T10:37:49.988Z,14.04
2023-01-01T10:40:23.456Z,14.15
2023-01-01T10:42:58.804Z,14.30
2023-01-01T10:45:36.042Z,14.42
2023-01-01T10:48:15.416Z,14.47
2023-01-01T10:50:49.117Z,14.60
2023-01-01T10:53:34.556Z,14.71
2023-01-01T10:56:12.821Z,14.86
2023-01-01T10:58:49.226Z,14.89
2023-01-01T11:01:26.065Z,15.13
2023-01-01T11:04:02.753Z,15.28
2023-01-01T11:06:38.094Z,15.38
2023-01-01T11:09:22.286Z,15.53
2023-01-01T11:12:07.876Z,15.74
2023-01-01T11:14:46.790Z,15.91
2023-01-01T11:17:25.549Z,15.85
2023-01-01T11:20:01.729Z,16.06
2023-01-01T11:22:45.445Z,16.14
2023-01-01T11:25:26.919Z,16.16
2023-01-01T11:28:23.063Z,16.28
2023-01-01T11:31:18.732Z,16.28
2023-01-01T11:33:53.800Z,16.24
2023-01-01T11:36:26.979Z,16.31
2023-01-01T11:39:20.888Z,16.35
2023-01-01T11:41:54.630Z,16.28
2023-01-01T11:44:39.171Z,16.25
2023-01-01T11:47:27.806Z,16.14
2023-01-01T11:50:02.264Z,16.36
2023-01-01T11:52:42.737Z,16.25
2023-01-01T11:55:25.320Z,16.36
2023-01-01T11:58:06.046Z,16.31
2023-01-01T12:00:39.932Z,16.21
2023-01-01T12:03:35.238Z,16.28
2023-01-01T12:06:13.895Z,16.07
2023-01-01T12:08:54.982Z,16.24
2023-01-01T12:11:41.550Z,16.37
2023-01-01T12:14:32.578Z,16.38
2023-01-01T12:17:11.690Z,16.58
2023-01-01T12:19:53.210Z,16.52
2023-01-01T12:22:23.378Z,16.54
2023-01-01T12:24:55.351Z,16.61
2023-01-01T12:27:55.575Z,16.71
2023-01-01T12:30:30.870Z,16.86
2023-01-01T12:33:51.765Z,16.93
2023-01-01T12:36:48.349Z,16.72
2023-01-01T12:40:01.911Z,16.61
2023-01-01T12:42:54.411Z,16.81
2023-01-01T12:45:47.481Z,16.91
2023-01-01T12:48:44.879Z,17.00
2023-01-01T12:51:32.779Z,16.93
2023-01-01T12:54:51.294Z,17.02
2023-01-01T12:57:33.399Z,16.83
2023-01-01T13:00:14.491Z,16.77
2023-01-01T13:02:53.874Z,16.82
2023-01-01T13:05:32.183Z,16.83
2023-01-01T13:08:07.123Z,16.83
2023-01-01T13:10:44.751Z,16.74
2023-01-01T13:13:16.871Z,16.81
2023-01-01T13:15:54.526Z,16.69
2023-01-01T13:18:30.060Z,16.56
2023-01-01T13:21:26.242Z,16.49
2023-01-01T13:24:04.802Z,16.48
2023-01-01T13:26:44.884Z,16.41
2023-01-01T13:29:38.007Z,16.29
2023-01-01T13:32:13.070Z,16.20
2023-01-01T13:35:05.821Z,16.22
2023-01-01T13:37:53.583Z,16.22
2023-01-01T13:40:53.677Z,16.16
2023-01-01T13:43:30.831Z,16.15
2023-01-01T13:46:12.802Z,16.15
2023-01-01T13:49:08.518Z,16.14
2023-01-01T13:52:07.528Z,16.15
2023-01-01T13:55:23.127Z,16.17
2023-01-01T13:58:31.833Z,16.13
2023-01-01T14:01:46.352Z,16.10
2023-01-01T14:04:33.193Z,16.03
2023-01-01T14:07:49.759Z,15.98
2023-01-01T14:10:31.202Z,15.97
2023-01-01T14:13:29.875Z,15.99
2023-01-01T14:16:07.950Z,15.91
2023-01-01T14:18:47.986Z,15.82
2023-01-01T14:21:21.867Z,15.68
2023-01-01T14:23:55.714Z,15.59
2023-01-01T14:26:28.966Z,15.50
2023-01-01T14:29:01.251Z,15.50
2023-01-01T14:31:39.195Z,15.48
2023-01-01T14:34:19.317Z,15.31
2023-01-01T14:36:57.433Z,15.28
2023-01-01T14:39:31.080Z,15.31
2023-01-01T14:42:06.150Z,15.24
2023-01-01T14:44:40.756Z,15.15
2023-01-01T14:47:28.472Z,15.06
2023-01-01T14:50:14.141Z,15.01
2023-01-01T14:52:44.455Z,14.90
2023-01-01T14:55:22.086Z,14.79
2023-01-01T14:58:00.926Z,14.65
2023-01-01T15:00:35.360Z,14.58
2023-01-01T15:03:19.550Z,14.42
2023-01-01T15:06:01.476Z,14.27
2023-01-01T15:08:31.723Z,14.12
2023-01-01T15:11:05.930Z,13.98
2023-01-01T15:13:36.039Z,13.85
2023-01-01T15:16:20.822Z,13.60
2023-01-01T15:18:57.790Z,13.48
2023-01-01T15:21:41.491Z,13.32
2023-01-01T15:24:17.676Z,13.20
2023-01-01T15:26:53.604Z,12.97
2023-01-01T15:29:32.322Z,12.84
2023-01-01T15:32:06.211Z,12.69
2023-01-01T15:34:46.028Z,12.46
2023-01-01T15:37:22.715Z,12.28
2023-01-01T15:39:55.432Z,12.17
2023-01-01T15:42:35.912Z,12.03
2023-01-01T15:45:31.882Z,11.83
2023-01-01T15:48:23.351Z,11.70
2023-01-01T15:51:09.010Z,11.56
2023-01-01T15:53:53.167Z,11.46
2023-01-01T15:56:27.300Z,11.35
2023-01-01T15:59:08.709Z,11.32
2023-01-01T16:01:43.835Z,11.18
2023-01-01T16:04:27.952Z,11.15
2023-01-01T16:07:02.125Z,11.06
2023-01-01T16:09:32.966Z,11.00
2023-01-01T16:12:02.926Z,10.97
2023-01-01T16:14:33.116Z,10.92
2023-01-01T16:17:03.248Z,10.87
2023-01-01T16:19:34.334Z,10.76
2023-01-01T16:22:06.940Z,10.71
2023-01-01T16:24:38.563Z,10.73
2023-01-01T16:27:08.593Z,10.76
2023-01-01T16:29:42.483Z,10.74
2023-01-01T16:32:20.744Z,10.71
2023-01-01T16:34:51.635Z,10.64
2023-01-01T16:37:24.886Z,10.57
2023-01-01T16:39:54.943Z,10.58
2023-01-01T16:42:24.948Z,10.61
2023-01-01T16:44:55.002Z,10.62
2023-01-01T16:47:25.597Z,10.65
2023-01-01T16:49:55.601Z,10.54
2023-01-01T16:52:33.447Z,10.47
2023-01-01T16:55:03.880Z,10.44
2023-01-01T16:57:35.594Z,10.41
2023-01-01T17:00:05.766Z,10.33
2023-01-01T17:02:36.175Z,10.28
2023-01-01T17:05:06.972Z,10.19
2023-01-01T17:07:39.704Z,10.07
2023-01-01T17:10:11.232Z,10.02
2023-01-01T17:12:41.333Z,9.96
2023-01-01T17:15:12.790Z,9.89
2023-01-01T17:17:42.766Z,9.80
2023-01-01T17:20:13.742Z,9.79
2023-01-01T17:22:46.304Z,9.79
2023-01-01T17:25:16.343Z,9.73
2023-01-01T17:27:47.570Z,9.60
2023-01-01T17:30:18.315Z,9.46
2023-01-01T17:32:49.039Z,9.33
2023-01-01T17:35:19.308Z,9.27
2023-01-01T17:37:51.866Z,9.20
2023-01-01T17:40:21.890Z,9.15
2023-01-01T17:42:55.141Z,9.09
2023-01-01T17:45:25.344Z,9.03
2023-01-01T17:47:55.744Z,8.98
2023-01-01T17:50:25.697Z,8.93
2023-01-01T17:52:58.533Z,8.87
2023-01-01T17:55:29.763Z,8.88
2023-01-01T17:57:59.705Z,8.83
2023-01-01T18:00:31.321Z,8.74
2023-01-01T18:03:01.499Z,8.73
2023-01-01T18:05:31.836Z,8.70
2023-01-01T18:08:04.444Z,8.64
2023-01-01T18:10:34.659Z,8.60
2023-01-01T18:13:05.309Z,8.63
2023-01-01T18:15:39.544Z,8.67
2023-01-01T18:18:09.710Z,8.65
2023-01-01T18:20:39.715Z,8.65
2023-01-01T18:23:12.382Z,8.68
2023-01-01T18:25:42.590Z,8.65
2023-01-01T18:28:12.775Z,8.59
2023-01-01T18:30:42.960Z,8.53
2023-01-01T18:33:14.850Z,8.57
2023-01-01T18:35:44.919Z,8.54
2023-01-01T18:38:18.952Z,8.52
2023-01-01T18:41:04.854Z,8.50
2023-01-01T18:43:34.841Z,8.48
2023-01-01T18:46:05.017Z,8.49
2023-01-01T18:48:35.038Z,8.56
2023-01-01T18:51:05.354Z,8.59
2023-01-01T18:53:38.829Z,8.57
2023-01-01T18:56:16.515Z,8.54
2023-01-01T18:58:49.437Z,8.42
2023-01-01T19:01:24.745Z,8.35
2023-01-01T19:04:00.555Z,8.40
2023-01-01T19:06:34.124Z,8.38
2023-01-01T19:09:25.369Z,8.41
2023-01-01T19:11:59.997Z,8.35
2023-01-01T19:14:33.572Z,8.32
2023-01-01T19:17:14.784Z,8.36
2023-01-01T19:19:45.026Z,8.35
2023-01-01T19:22:29.049Z,8.33
2023-01-01T19:25:01.913Z,8.32
2023-01-01T19:27:35.816Z,8.29
2023-01-01T19:30:25.061Z,8.36
2023-01-01T19:32:55.791Z,8.32
2023-01-01T19:35:25.825Z,8.26
2023-01-01T19:37:55.818Z,8.28
2023-01-01T19:40:28.539Z,8.45
2023-01-01T19:42:58.672Z,8.51
2023-01-01T19:45:28.795Z,8.53
2023-01-01T19:47:59.040Z,8.40
2023-01-01T19:50:29.182Z,8.39
2023-01-01T19:52:59.175Z,8.35
2023-01-01T19:55:31.809Z,8.68
2023-01-01T19:58:01.869Z,8.85
2023-01-01T20:00:31.895Z,8.76
2023-01-01T20:03:34.248Z,9.00
2023-01-01T20:05:52.023Z,9.00
2023-01-01T20:08:22.357Z,8.91
2023-01-01T20:10:55.058Z,8.83
2023-01-01T20:13:25.190Z,8.73
2023-01-01T20:15:55.419Z,8.61
2023-01-01T20:18:25.583Z,8.61
2023-01-01T20:21:08.083Z,8.57
2023-01-01T20:23:38.202Z,8.60
2023-01-01T20:26:11.489Z,8.48
2023-01-01T20:28:54.052Z,8.44
2023-01-01T20:31:24.422Z,8.37
2023-01-01T20:33:54.913Z,8.45
2023-01-01T20:36:37.484Z,8.50
2023-01-01T20:39:07.513Z,8.37
2023-01-01T20:41:40.147Z,8.35
2023-01-01T20:44:11.064Z,8.26
2023-01-01T20:46:45.963Z,8.16
2023-01-01T20:49:17.124Z,8.06
2023-01-01T20:51:47.392Z,8.04
2023-01-01T20:54:17.942Z,7.94
2023-01-01T20:56:50.745Z,7.80
2023-01-01T20:59:38.330Z,7.73
2023-01-01T21:02:11.892Z,7.61
2023-01-01T21:04:42.857Z,7.68
2023-01-01T21:07:14.997Z,7.64
2023-01-01T21:09:45.428Z,7.60
2023-01-01T21:12:18.104Z,7.59
2023-01-01T21:14:48.304Z,7.52
2023-01-01T21:17:24.306Z,7.50
2023-01-01T21:19:59.284Z,7.49
2023-01-01T21:22:30.633Z,7.51
2023-01-01T21:25:40.576Z,7.52
2023-01-01T21:27:57.312Z,7.48
2023-01-01T21:30:27.424Z,7.51
2023-01-01T21:32:57.496Z,7.51
2023-01-01T21:35:34.859Z,7.56
2023-01-01T21:38:18.914Z,7.54
2023-01-01T21:40:54.780Z,7.55
2023-01-01T21:43:40.923Z,7.59
2023-01-01T21:46:36.509Z,7.61
2023-01-01T21:49:20.253Z,7.56
2023-01-01T21:51:56.772Z,7.62
2023-01-01T21:54:35.345Z,7.87
2023-01-01T21:57:17.576Z,7.95
2023-01-01T21:59:51.983Z,7.94
2023-01-01T22:02:39.445Z,7.87
2023-01-01T22:05:37.133Z,7.79
2023-01-01T22:08:26.849Z,7.73
2023-01-01T22:11:00.198Z,7.92
2023-01-01T22:13:31.551Z,7.79
2023-01-01T22:16:05.468Z,7.77
2023-01-01T22:18:42.807Z,7.82
2023-01-01T22:21:20.353Z,7.70
2023-01-01T22:23:51.176Z,7.77
2023-01-01T22:26:27.755Z,7.87
2023-01-01T22:29:04.421Z,7.80
2023-01-01T22:31:45.338Z,7.72
2023-01-01T22:34:26.541Z,7.78
2023-01-01T22:36:57.261Z,7.77
2023-01-01T22:39:32.332Z,7.93
2023-01-01T22:42:02.337Z,7.89
2023-01-01T22:44:35.816Z,7.92
2023-01-01T22:47:15.236Z,7.88
2023-01-01T22:49:51.383Z,8.00
2023-01-01T22:52:21.555Z,7.93
2023-01-01T22:54:51.610Z,7.82
2023-01-01T22:57:22.209Z,7.70
2023-01-01T22:59:52.228Z,7.53
2023-01-01T23:02:24.844Z,7.46
2023-01-01T23:04:54.858Z,7.44
2023-01-01T23:07:24.830Z,7.36
2023-01-01T23:09:54.959Z,7.24
2023-01-01T23:12:25.045Z,7.29
2023-01-01T23:15:07.511Z,7.39
2023-01-01T23:17:40.137Z,7.52
2023-01-01T23:20:13.081Z,7.61
2023-01-01T23:22:51.891Z,7.75
2023-01-01T23:25:24.088Z,7.88
2023-01-01T23:27:56.189Z,7.93
2023-01-01T23:30:26.216Z,7.98
2023-01-01T23:32:58.974Z,8.08
2023-01-01T23:35:28.932Z,8.15
2023-01-01T23:37:59.313Z,8.26
2023-01-01T23:40:29.359Z,8.33
2023-01-01T23:42:59.426Z,8.37
2023-01-01T23:45:29.488Z,8.42
2023-01-01T23:48:02.143Z,8.56
2023-01-01T23:50:32.654Z,8.66
2023-01-01T23:53:03.308Z,8.74
2023-01-01T23:55:33.329Z,8.91
2023-01-01T23:58:03.448Z,9.00
